Аэропорт: Мурманск. Мурманск

ICAO: ULMM

METAR:
2022-01-28 08:00:00
ULMM 280800Z 00000MPS 9999 BKN013 M09/M09 Q0999 R31/390143 NOSIG RMK QFE742
METAR:
2022-01-28 04:50:00
TAF ULMM 280450Z 2806/2906 21003MPS 9999 BKN009 BKN016 TEMPO 2806/2812 18003MPS BKN007 BKN016CB BECMG 2812/2813 BKN016 TEMPO 2813/2906 18003MPS 3000 -SHSN BKN016CB